sensor_id;sensor_type;location;lat;lon;timestamp;temperature;humidity
12907;DHT22;6521;50.498;8.474;2022-07-23T00:01:08;20.13;74.06
12907;DHT22;6521;50.498;8.474;2022-07-23T00:03:38;19.81;75.00
12907;DHT22;6521;50.498;8.474;2022-07-23T00:06:09;19.49;76.21
12907;DHT22;6521;50.498;8.474;2022-07-23T00:08:40;19.33;76.66
12907;DHT22;6521;50.498;8.474;2022-07-23T00:11:11;19.28;77.34
12907;DHT22;6521;50.498;8.474;2022-07-23T00:13:42;19.15;78.32
12907;DHT22;6521;50.498;8.474;2022-07-23T00:16:12;19.16;78.66
12907;DHT22;6521;50.498;8.474;2022-07-23T00:18:43;19.11;78.77
12907;DHT22;6521;50.498;8.474;2022-07-23T00:21:13;19.08;79.30
12907;DHT22;6521;50.498;8.474;2022-07-23T00:23:44;19.05;79.33
12907;DHT22;6521;50.498;8.474;2022-07-23T00:26:15;19.09;79.35
12907;DHT22;6521;50.498;8.474;2022-07-23T00:28:45;19.12;79.38
12907;DHT22;6521;50.498;8.474;2022-07-23T00:31:16;19.19;79.07
12907;DHT22;6521;50.498;8.474;2022-07-23T00:33:47;19.26;78.71
12907;DHT22;6521;50.498;8.474;2022-07-23T00:36:17;19.26;78.60
12907;DHT22;6521;50.498;8.474;2022-07-23T00:38:48;19.14;78.80
12907;DHT22;6521;50.498;8.474;2022-07-23T00:41:19;19.19;78.77
12907;DHT22;6521;50.498;8.474;2022-07-23T00:43:50;19.14;79.30
12907;DHT22;6521;50.498;8.474;2022-07-23T00:46:21;19.16;79.12
12907;DHT22;6521;50.498;8.474;2022-07-23T00:48:52;19.16;79.14
12907;DHT22;6521;50.498;8.474;2022-07-23T00:51:23;19.08;79.59
12907;DHT22;6521;50.498;8.474;2022-07-23T00:53:53;19.04;79.90
12907;DHT22;6521;50.498;8.474;2022-07-23T00:56:24;19.08;79.84
12907;DHT22;6521;50.498;8.474;2022-07-23T00:58:55;19.14;79.61
12907;DHT22;6521;50.498;8.474;2022-07-23T01:01:26;19.18;79.18
12907;DHT22;6521;50.498;8.474;2022-07-23T01:03:57;19.15;78.87
12907;DHT22;6521;50.498;8.474;2022-07-23T01:06:28;19.18;78.84
12907;DHT22;6521;50.498;8.474;2022-07-23T01:08:58;19.11;78.45
12907;DHT22;6521;50.498;8.474;2022-07-23T01:11:29;19.00;78.46
12907;DHT22;6521;50.498;8.474;2022-07-23T01:14:08;18.91;78.73
12907;DHT22;6521;50.498;8.474;2022-07-23T01:16:39;19.01;78.65
12907;DHT22;6521;50.498;8.474;2022-07-23T01:19:10;19.05;78.35
12907;DHT22;6521;50.498;8.474;2022-07-23T01:21:48;19.08;78.40
12907;DHT22;6521;50.498;8.474;2022-07-23T01:24:19;19.09;78.32
12907;DHT22;6521;50.498;8.474;2022-07-23T01:27:01;19.09;78.44
12907;DHT22;6521;50.498;8.474;2022-07-23T01:29:31;19.00;78.07
12907;DHT22;6521;50.498;8.474;2022-07-23T01:32:06;18.90;78.51
12907;DHT22;6521;50.498;8.474;2022-07-23T01:34:37;18.91;78.46
12907;DHT22;6521;50.498;8.474;2022-07-23T01:37:08;18.92;78.34
12907;DHT22;6521;50.498;8.474;2022-07-23T01:39:39;18.92;78.43
12907;DHT22;6521;50.498;8.474;2022-07-23T01:42:11;18.94;78.30
12907;DHT22;6521;50.498;8.474;2022-07-23T01:44:41;18.94;78.47
12907;DHT22;6521;50.498;8.474;2022-07-23T01:47:17;18.85;78.64
12907;DHT22;6521;50.498;8.474;2022-07-23T01:49:48;18.87;78.58
12907;DHT22;6521;50.498;8.474;2022-07-23T01:52:32;18.90;78.72
12907;DHT22;6521;50.498;8.474;2022-07-23T01:55:03;18.84;78.61
12907;DHT22;6521;50.498;8.474;2022-07-23T01:57:33;18.83;78.61
12907;DHT22;6521;50.498;8.474;2022-07-23T02:00:05;18.88;78.34
12907;DHT22;6521;50.498;8.474;2022-07-23T02:02:43;18.84;78.57
12907;DHT22;6521;50.498;8.474;2022-07-23T02:05:14;18.80;78.80
12907;DHT22;6521;50.498;8.474;2022-07-23T02:07:45;18.72;79.27
12907;DHT22;6521;50.498;8.474;2022-07-23T02:10:15;18.67;79.80
12907;DHT22;6521;50.498;8.474;2022-07-23T02:12:46;18.59;80.27
12907;DHT22;6521;50.498;8.474;2022-07-23T02:15:17;18.46;80.91
12907;DHT22;6521;50.498;8.474;2022-07-23T02:17:48;18.51;80.82
12907;DHT22;6521;50.498;8.474;2022-07-23T02:20:18;18.51;80.82
12907;DHT22;6521;50.498;8.474;2022-07-23T02:22:49;18.51;81.05
12907;DHT22;6521;50.498;8.474;2022-07-23T02:25:20;18.53;81.03
12907;DHT22;6521;50.498;8.474;2022-07-23T02:27:50;18.50;81.17
12907;DHT22;6521;50.498;8.474;2022-07-23T02:30:21;18.47;81.30
12907;DHT22;6521;50.498;8.474;2022-07-23T02:32:51;18.47;81.38
12907;DHT22;6521;50.498;8.474;2022-07-23T02:35:22;18.46;81.53
12907;DHT22;6521;50.498;8.474;2022-07-23T02:37:53;18.42;81.77
12907;DHT22;6521;50.498;8.474;2022-07-23T02:40:25;18.39;81.70
12907;DHT22;6521;50.498;8.474;2022-07-23T02:42:56;18.39;82.04
12907;DHT22;6521;50.498;8.474;2022-07-23T02:45:27;18.39;82.03
12907;DHT22;6521;50.498;8.474;2022-07-23T02:47:58;18.42;81.87
12907;DHT22;6521;50.498;8.474;2022-07-23T02:50:30;18.43;81.66
12907;DHT22;6521;50.498;8.474;2022-07-23T02:53:03;18.44;81.59
12907;DHT22;6521;50.498;8.474;2022-07-23T02:55:33;18.49;81.52
12907;DHT22;6521;50.498;8.474;2022-07-23T02:58:06;18.49;81.39
12907;DHT22;6521;50.498;8.474;2022-07-23T03:00:37;18.50;81.34
12907;DHT22;6521;50.498;8.474;2022-07-23T03:03:07;18.49;81.19
12907;DHT22;6521;50.498;8.474;2022-07-23T03:05:38;18.47;80.84
12907;DHT22;6521;50.498;8.474;2022-07-23T03:08:09;18.32;81.35
12907;DHT22;6521;50.498;8.474;2022-07-23T03:10:42;18.26;81.71
12907;DHT22;6521;50.498;8.474;2022-07-23T03:13:13;18.25;81.96
12907;DHT22;6521;50.498;8.474;2022-07-23T03:15:43;18.34;81.82
12907;DHT22;6521;50.498;8.474;2022-07-23T03:18:14;18.37;81.94
12907;DHT22;6521;50.498;8.474;2022-07-23T03:20:45;18.36;82.17
12907;DHT22;6521;50.498;8.474;2022-07-23T03:23:16;18.40;82.05
12907;DHT22;6521;50.498;8.474;2022-07-23T03:25:46;18.39;82.10
12907;DHT22;6521;50.498;8.474;2022-07-23T03:28:18;18.39;82.10
12907;DHT22;6521;50.498;8.474;2022-07-23T03:30:49;18.43;81.98
12907;DHT22;6521;50.498;8.474;2022-07-23T03:33:20;18.49;81.84
12907;DHT22;6521;50.498;8.474;2022-07-23T03:35:51;18.47;81.71
12907;DHT22;6521;50.498;8.474;2022-07-23T03:38:27;18.44;81.82
12907;DHT22;6521;50.498;8.474;2022-07-23T03:40:58;18.47;81.92
12907;DHT22;6521;50.498;8.474;2022-07-23T03:43:28;18.46;81.79
12907;DHT22;6521;50.498;8.474;2022-07-23T03:45:59;18.42;81.91
12907;DHT22;6521;50.498;8.474;2022-07-23T03:48:30;18.40;81.71
12907;DHT22;6521;50.498;8.474;2022-07-23T03:51:01;18.39;81.46
12907;DHT22;6521;50.498;8.474;2022-07-23T03:53:32;18.32;81.53
12907;DHT22;6521;50.498;8.474;2022-07-23T03:56:02;18.33;81.43
12907;DHT22;6521;50.498;8.474;2022-07-23T03:58:34;18.25;81.72
12907;DHT22;6521;50.498;8.474;2022-07-23T04:01:05;18.17;82.09
12907;DHT22;6521;50.498;8.474;2022-07-23T04:03:36;18.14;82.32
12907;DHT22;6521;50.498;8.474;2022-07-23T04:06:06;18.19;82.33
12907;DHT22;6521;50.498;8.474;2022-07-23T04:08:38;18.22;82.12
12907;DHT22;6521;50.498;8.474;2022-07-23T04:11:09;18.25;82.28
12907;DHT22;6521;50.498;8.474;2022-07-23T04:13:40;18.29;82.43
12907;DHT22;6521;50.498;8.474;2022-07-23T04:16:11;18.32;82.41
12907;DHT22;6521;50.498;8.474;2022-07-23T04:18:42;18.32;82.29
12907;DHT22;6521;50.498;8.474;2022-07-23T04:21:20;18.34;82.25
12907;DHT22;6521;50.498;8.474;2022-07-23T04:23:51;18.39;82.14
12907;DHT22;6521;50.498;8.474;2022-07-23T04:26:24;18.39;81.83
12907;DHT22;6521;50.498;8.474;2022-07-23T04:28:55;18.44;81.62
12907;DHT22;6521;50.498;8.474;2022-07-23T04:31:25;18.47;81.54
12907;DHT22;6521;50.498;8.474;2022-07-23T04:33:56;18.51;81.11
12907;DHT22;6521;50.498;8.474;2022-07-23T04:36:27;18.54;80.88
12907;DHT22;6521;50.498;8.474;2022-07-23T04:38:57;18.54;80.87
12907;DHT22;6521;50.498;8.474;2022-07-23T04:41:28;18.46;80.96
12907;DHT22;6521;50.498;8.474;2022-07-23T04:44:00;18.40;81.26
12907;DHT22;6521;50.498;8.474;2022-07-23T04:46:31;18.36;81.33
12907;DHT22;6521;50.498;8.474;2022-07-23T04:49:02;18.33;81.80
12907;DHT22;6521;50.498;8.474;2022-07-23T04:51:33;18.33;81.80
12907;DHT22;6521;50.498;8.474;2022-07-23T04:54:04;18.36;81.77
12907;DHT22;6521;50.498;8.474;2022-07-23T04:56:35;18.36;81.81
12907;DHT22;6521;50.498;8.474;2022-07-23T04:59:05;18.37;81.77
12907;DHT22;6521;50.498;8.474;2022-07-23T05:01:36;18.39;81.78
12907;DHT22;6521;50.498;8.474;2022-07-23T05:04:07;18.37;81.83
12907;DHT22;6521;50.498;8.474;2022-07-23T05:06:40;18.40;81.80
12907;DHT22;6521;50.498;8.474;2022-07-23T05:09:11;18.46;81.65
12907;DHT22;6521;50.498;8.474;2022-07-23T05:11:42;18.47;81.30
12907;DHT22;6521;50.498;8.474;2022-07-23T05:14:12;18.47;81.38
12907;DHT22;6521;50.498;8.474;2022-07-23T05:16:44;18.44;80.98
12907;DHT22;6521;50.498;8.474;2022-07-23T05:19:21;18.33;81.04
12907;DHT22;6521;50.498;8.474;2022-07-23T05:21:52;18.25;81.42
12907;DHT22;6521;50.498;8.474;2022-07-23T05:24:22;18.16;81.76
12907;DHT22;6521;50.498;8.474;2022-07-23T05:26:54;18.30;81.74
12907;DHT22;6521;50.498;8.474;2022-07-23T05:29:26;18.32;80.87
12907;DHT22;6521;50.498;8.474;2022-07-23T05:31:56;18.34;80.70
12907;DHT22;6521;50.498;8.474;2022-07-23T05:34:27;18.39;79.61
12907;DHT22;6521;50.498;8.474;2022-07-23T05:36:58;18.44;79.57
12907;DHT22;6521;50.498;8.474;2022-07-23T05:39:29;18.49;79.43
12907;DHT22;6521;50.498;8.474;2022-07-23T05:42:00;18.53;78.21
12907;DHT22;6521;50.498;8.474;2022-07-23T05:44:31;18.50;77.56
12907;DHT22;6521;50.498;8.474;2022-07-23T05:47:01;18.46;76.69
12907;DHT22;6521;50.498;8.474;2022-07-23T05:49:33;18.40;76.25
12907;DHT22;6521;50.498;8.474;2022-07-23T05:52:27;18.39;75.95
12907;DHT22;6521;50.498;8.474;2022-07-23T05:55:17;18.44;76.24
12907;DHT22;6521;50.498;8.474;2022-07-23T05:57:48;18.39;75.43
12907;DHT22;6521;50.498;8.474;2022-07-23T06:00:19;18.40;75.44
12907;DHT22;6521;50.498;8.474;2022-07-23T06:02:51;18.47;75.30
12907;DHT22;6521;50.498;8.474;2022-07-23T06:05:22;18.56;74.03
12907;DHT22;6521;50.498;8.474;2022-07-23T06:07:53;18.60;74.21
12907;DHT22;6521;50.498;8.474;2022-07-23T06:10:24;18.65;73.94
12907;DHT22;6521;50.498;8.474;2022-07-23T06:12:55;18.68;73.80
12907;DHT22;6521;50.498;8.474;2022-07-23T06:15:26;18.75;73.70
12907;DHT22;6521;50.498;8.474;2022-07-23T06:17:57;18.84;73.30
12907;DHT22;6521;50.498;8.474;2022-07-23T06:20:27;18.90;71.82
12907;DHT22;6521;50.498;8.474;2022-07-23T06:23:01;18.94;72.46
12907;DHT22;6521;50.498;8.474;2022-07-23T06:25:32;19.04;71.65
12907;DHT22;6521;50.498;8.474;2022-07-23T06:28:03;19.05;70.46
12907;DHT22;6521;50.498;8.474;2022-07-23T06:30:34;19.09;69.67
12907;DHT22;6521;50.498;8.474;2022-07-23T06:33:07;19.19;70.13
12907;DHT22;6521;50.498;8.474;2022-07-23T06:35:38;19.33;69.68
12907;DHT22;6521;50.498;8.474;2022-07-23T06:38:10;19.40;67.73
12907;DHT22;6521;50.498;8.474;2022-07-23T06:40:41;19.40;68.36
12907;DHT22;6521;50.498;8.474;2022-07-23T06:43:11;19.42;68.66
12907;DHT22;6521;50.498;8.474;2022-07-23T06:45:42;19.35;67.82
12907;DHT22;6521;50.498;8.474;2022-07-23T06:48:14;19.38;68.37
12907;DHT22;6521;50.498;8.474;2022-07-23T06:50:44;19.36;67.75
12907;DHT22;6521;50.498;8.474;2022-07-23T06:53:15;19.35;66.60
12907;DHT22;6521;50.498;8.474;2022-07-23T06:55:46;19.42;67.19
12907;DHT22;6521;50.498;8.474;2022-07-23T06:58:16;19.49;67.57
12907;DHT22;6521;50.498;8.474;2022-07-23T07:00:49;19.67;67.95
12907;DHT22;6521;50.498;8.474;2022-07-23T07:03:19;19.81;67.56
12907;DHT22;6521;50.498;8.474;2022-07-23T07:05:50;19.93;67.75
12907;DHT22;6521;50.498;8.474;2022-07-23T07:08:20;20.03;67.26
12907;DHT22;6521;50.498;8.474;2022-07-23T07:10:51;20.11;66.08
12907;DHT22;6521;50.498;8.474;2022-07-23T07:13:22;20.17;66.47
12907;DHT22;6521;50.498;8.474;2022-07-23T07:15:53;20.20;65.30
12907;DHT22;6521;50.498;8.474;2022-07-23T07:18:23;20.18;64.44
12907;DHT22;6521;50.498;8.474;2022-07-23T07:20:54;20.10;63.51
12907;DHT22;6521;50.498;8.474;2022-07-23T07:23:25;20.10;64.01
12907;DHT22;6521;50.498;8.474;2022-07-23T07:25:55;20.13;65.11
12907;DHT22;6521;50.498;8.474;2022-07-23T07:28:26;20.13;64.54
12907;DHT22;6521;50.498;8.474;2022-07-23T07:30:57;20.25;64.85
12907;DHT22;6521;50.498;8.474;2022-07-23T07:33:27;20.39;64.14
12907;DHT22;6521;50.498;8.474;2022-07-23T07:35:59;20.51;62.31
12907;DHT22;6521;50.498;8.474;2022-07-23T07:38:30;20.64;63.00
12907;DHT22;6521;50.498;8.474;2022-07-23T07:41:01;20.66;62.64
12907;DHT22;6521;50.498;8.474;2022-07-23T07:43:32;20.55;62.78
12907;DHT22;6521;50.498;8.474;2022-07-23T07:46:03;20.68;62.83
12907;DHT22;6521;50.498;8.474;2022-07-23T07:48:34;20.69;62.48
12907;DHT22;6521;50.498;8.474;2022-07-23T07:51:05;20.76;62.60
12907;DHT22;6521;50.498;8.474;2022-07-23T07:53:36;20.75;63.05
12907;DHT22;6521;50.498;8.474;2022-07-23T07:56:06;20.80;62.31
12907;DHT22;6521;50.498;8.474;2022-07-23T07:58:37;20.76;61.49
12907;DHT22;6521;50.498;8.474;2022-07-23T08:01:08;20.62;61.43
12907;DHT22;6521;50.498;8.474;2022-07-23T08:03:39;20.80;62.51
12907;DHT22;6521;50.498;8.474;2022-07-23T08:06:10;20.96;61.99
12907;DHT22;6521;50.498;8.474;2022-07-23T08:08:40;21.11;60.34
12907;DHT22;6521;50.498;8.474;2022-07-23T08:11:11;21.24;61.09
12907;DHT22;6521;50.498;8.474;2022-07-23T08:13:41;21.33;60.52
12907;DHT22;6521;50.498;8.474;2022-07-23T08:16:14;21.40;60.72
12907;DHT22;6521;50.498;8.474;2022-07-23T08:18:45;21.48;59.61
12907;DHT22;6521;50.498;8.474;2022-07-23T08:21:16;21.41;59.03
12907;DHT22;6521;50.498;8.474;2022-07-23T08:23:46;21.47;60.22
12907;DHT22;6521;50.498;8.474;2022-07-23T08:26:17;21.61;59.43
12907;DHT22;6521;50.498;8.474;2022-07-23T08:28:48;21.59;57.38
12907;DHT22;6521;50.498;8.474;2022-07-23T08:31:19;21.62;60.03
12907;DHT22;6521;50.498;8.474;2022-07-23T08:33:49;21.78;59.87
12907;DHT22;6521;50.498;8.474;2022-07-23T08:36:20;21.92;57.20
12907;DHT22;6521;50.498;8.474;2022-07-23T08:38:51;22.02;57.34
12907;DHT22;6521;50.498;8.474;2022-07-23T08:41:21;22.05;57.61
12907;DHT22;6521;50.498;8.474;2022-07-23T08:43:52;22.13;58.50
12907;DHT22;6521;50.498;8.474;2022-07-23T08:46:25;22.28;57.52
12907;DHT22;6521;50.498;8.474;2022-07-23T08:48:57;22.44;57.63
12907;DHT22;6521;50.498;8.474;2022-07-23T08:51:28;22.64;56.24
12907;DHT22;6521;50.498;8.474;2022-07-23T08:54:00;22.71;55.65
12907;DHT22;6521;50.498;8.474;2022-07-23T08:56:31;22.78;54.97
12907;DHT22;6521;50.498;8.474;2022-07-23T08:59:02;22.90;55.20
12907;DHT22;6521;50.498;8.474;2022-07-23T09:01:33;23.11;54.11
12907;DHT22;6521;50.498;8.474;2022-07-23T09:04:03;23.26;53.38
12907;DHT22;6521;50.498;8.474;2022-07-23T09:06:38;23.50;53.25
12907;DHT22;6521;50.498;8.474;2022-07-23T09:09:20;23.65;52.52
12907;DHT22;6521;50.498;8.474;2022-07-23T09:12:05;23.79;51.98
12907;DHT22;6521;50.498;8.474;2022-07-23T09:14:41;23.98;51.76
12907;DHT22;6521;50.498;8.474;2022-07-23T09:17:15;24.22;49.68
12907;DHT22;6521;50.498;8.474;2022-07-23T09:19:46;24.37;48.55
12907;DHT22;6521;50.498;8.474;2022-07-23T09:22:25;24.58;48.37
12907;DHT22;6521;50.498;8.474;2022-07-23T09:25:14;24.90;47.59
12907;DHT22;6521;50.498;8.474;2022-07-23T09:27:56;24.97;48.23
12907;DHT22;6521;50.498;8.474;2022-07-23T09:30:30;25.20;48.97
12907;DHT22;6521;50.498;8.474;2022-07-23T09:38:24;26.05;47.42
12907;DHT22;6521;50.498;8.474;2022-07-23T09:41:08;26.56;46.24
12907;DHT22;6521;50.498;8.474;2022-07-23T09:43:39;26.84;44.56
12907;DHT22;6521;50.498;8.474;2022-07-23T09:46:21;27.16;44.63
12907;DHT22;6521;50.498;8.474;2022-07-23T09:48:54;27.53;43.11
12907;DHT22;6521;50.498;8.474;2022-07-23T09:51:27;27.58;43.23
12907;DHT22;6521;50.498;8.474;2022-07-23T09:54:20;27.82;43.09
12907;DHT22;6521;50.498;8.474;2022-07-23T09:56:53;27.90;42.67
12907;DHT22;6521;50.498;8.474;2022-07-23T09:59:27;27.67;41.90
12907;DHT22;6521;50.498;8.474;2022-07-23T10:01:58;27.14;44.10
12907;DHT22;6521;50.498;8.474;2022-07-23T10:04:30;27.04;44.88
12907;DHT22;6521;50.498;8.474;2022-07-23T10:07:21;27.19;43.24
12907;DHT22;6521;50.498;8.474;2022-07-23T10:10:11;27.62;42.94
12907;DHT22;6521;50.498;8.474;2022-07-23T10:12:44;28.01;42.79
12907;DHT22;6521;50.498;8.474;2022-07-23T10:15:20;28.52;40.65
12907;DHT22;6521;50.498;8.474;2022-07-23T10:17:51;28.51;42.05
12907;DHT22;6521;50.498;8.474;2022-07-23T10:20:22;28.74;40.89
12907;DHT22;6521;50.498;8.474;2022-07-23T10:23:05;29.16;41.67
12907;DHT22;6521;50.498;8.474;2022-07-23T10:25:54;29.47;40.48
12907;DHT22;6521;50.498;8.474;2022-07-23T10:31:56;29.38;40.17
12907;DHT22;6521;50.498;8.474;2022-07-23T10:35:10;29.64;38.78
12907;DHT22;6521;50.498;8.474;2022-07-23T10:37:41;29.94;39.43
12907;DHT22;6521;50.498;8.474;2022-07-23T10:40:19;29.94;39.09
12907;DHT22;6521;50.498;8.474;2022-07-23T10:42:51;30.69;37.88
12907;DHT22;6521;50.498;8.474;2022-07-23T10:45:33;30.60;36.81
12907;DHT22;6521;50.498;8.474;2022-07-23T10:51:14;31.02;36.09
12907;DHT22;6521;50.498;8.474;2022-07-23T10:59:20;30.66;36.81
12907;DHT22;6521;50.498;8.474;2022-07-23T11:01:51;30.47;37.81
12907;DHT22;6521;50.498;8.474;2022-07-23T11:04:48;29.91;38.27
12907;DHT22;6521;50.498;8.474;2022-07-23T11:07:19;29.78;39.83
12907;DHT22;6521;50.498;8.474;2022-07-23T11:09:50;29.67;38.97
12907;DHT22;6521;50.498;8.474;2022-07-23T11:17:29;30.31;37.28
12907;DHT22;6521;50.498;8.474;2022-07-23T11:25:29;30.25;37.23
12907;DHT22;6521;50.498;8.474;2022-07-23T11:28:10;30.22;37.67
12907;DHT22;6521;50.498;8.474;2022-07-23T11:30:43;29.54;38.67
12907;DHT22;6521;50.498;8.474;2022-07-23T11:35:47;28.89;40.82
12907;DHT22;6521;50.498;8.474;2022-07-23T11:38:21;28.95;41.27
12907;DHT22;6521;50.498;8.474;2022-07-23T11:40:54;29.00;41.26
12907;DHT22;6521;50.498;8.474;2022-07-23T11:43:26;29.09;41.32
12907;DHT22;6521;50.498;8.474;2022-07-23T11:45:59;29.03;41.19
12907;DHT22;6521;50.498;8.474;2022-07-23T11:48:30;28.80;41.19
12907;DHT22;6521;50.498;8.474;2022-07-23T11:51:01;28.51;41.16
12907;DHT22;6521;50.498;8.474;2022-07-23T11:53:33;28.33;41.07
12907;DHT22;6521;50.498;8.474;2022-07-23T11:56:09;28.07;41.20
12907;DHT22;6521;50.498;8.474;2022-07-23T11:58:54;28.54;41.50
12907;DHT22;6521;50.498;8.474;2022-07-23T12:01:25;28.91;41.44
12907;DHT22;6521;50.498;8.474;2022-07-23T12:03:56;29.34;40.61
12907;DHT22;6521;50.498;8.474;2022-07-23T12:06:27;29.89;39.07
12907;DHT22;6521;50.498;8.474;2022-07-23T12:08:57;30.04;38.88
12907;DHT22;6521;50.498;8.474;2022-07-23T12:11:28;30.46;38.59
12907;DHT22;6521;50.498;8.474;2022-07-23T12:13:59;30.95;37.19
12907;DHT22;6521;50.498;8.474;2022-07-23T12:16:29;31.02;35.56
12907;DHT22;6521;50.498;8.474;2022-07-23T12:19:00;30.84;36.19
12907;DHT22;6521;50.498;8.474;2022-07-23T12:21:31;31.22;34.13
12907;DHT22;6521;50.498;8.474;2022-07-23T12:24:08;31.49;32.32
12907;DHT22;6521;50.498;8.474;2022-07-23T12:26:38;31.61;32.11
12907;DHT22;6521;50.498;8.474;2022-07-23T12:29:09;31.69;32.51
12907;DHT22;6521;50.498;8.474;2022-07-23T12:31:40;31.75;32.22
12907;DHT22;6521;50.498;8.474;2022-07-23T12:34:15;31.75;32.77
12907;DHT22;6521;50.498;8.474;2022-07-23T12:36:46;31.66;32.85
12907;DHT22;6521;50.498;8.474;2022-07-23T12:39:35;31.62;32.41
12907;DHT22;6521;50.498;8.474;2022-07-23T12:42:11;31.93;30.62
12907;DHT22;6521;50.498;8.474;2022-07-23T12:45:02;32.27;31.10
12907;DHT22;6521;50.498;8.474;2022-07-23T12:55:38;31.10;31.03
12907;DHT22;6521;50.498;8.474;2022-07-23T13:05:56;32.41;29.76
12907;DHT22;6521;50.498;8.474;2022-07-23T13:08:29;32.30;30.12
12907;DHT22;6521;50.498;8.474;2022-07-23T13:11:01;32.92;29.10
12907;DHT22;6521;50.498;8.474;2022-07-23T13:13:33;33.02;30.17
12907;DHT22;6521;50.498;8.474;2022-07-23T13:16:04;33.02;29.60
12907;DHT22;6521;50.498;8.474;2022-07-23T13:18:35;33.27;28.79
12907;DHT22;6521;50.498;8.474;2022-07-23T13:21:06;33.06;29.37
12907;DHT22;6521;50.498;8.474;2022-07-23T13:23:37;33.34;28.65
12907;DHT22;6521;50.498;8.474;2022-07-23T13:26:07;33.12;29.38
12907;DHT22;6521;50.498;8.474;2022-07-23T13:28:38;32.81;29.25
12907;DHT22;6521;50.498;8.474;2022-07-23T13:31:09;32.24;29.72
12907;DHT22;6521;50.498;8.474;2022-07-23T13:33:40;31.50;31.57
12907;DHT22;6521;50.498;8.474;2022-07-23T13:36:10;31.63;30.85
12907;DHT22;6521;50.498;8.474;2022-07-23T13:38:41;31.75;31.55
12907;DHT22;6521;50.498;8.474;2022-07-23T13:41:12;32.33;30.04
12907;DHT22;6521;50.498;8.474;2022-07-23T13:43:42;32.57;29.98
12907;DHT22;6521;50.498;8.474;2022-07-23T13:46:13;32.30;29.58
12907;DHT22;6521;50.498;8.474;2022-07-23T13:48:44;31.68;30.50
12907;DHT22;6521;50.498;8.474;2022-07-23T13:51:14;31.58;30.40
12907;DHT22;6521;50.498;8.474;2022-07-23T13:53:46;31.69;31.35
12907;DHT22;6521;50.498;8.474;2022-07-23T13:56:17;32.05;30.91
12907;DHT22;6521;50.498;8.474;2022-07-23T13:58:47;32.19;31.12
12907;DHT22;6521;50.498;8.474;2022-07-23T14:01:18;32.50;29.69
12907;DHT22;6521;50.498;8.474;2022-07-23T14:03:48;32.98;28.83
12907;DHT22;6521;50.498;8.474;2022-07-23T14:06:19;32.92;29.60
12907;DHT22;6521;50.498;8.474;2022-07-23T14:08:50;32.72;29.04
12907;DHT22;6521;50.498;8.474;2022-07-23T14:11:21;32.19;29.14
12907;DHT22;6521;50.498;8.474;2022-07-23T14:13:51;31.55;30.18
12907;DHT22;6521;50.498;8.474;2022-07-23T14:16:22;31.88;30.33
12907;DHT22;6521;50.498;8.474;2022-07-23T14:18:53;32.03;29.01
12907;DHT22;6521;50.498;8.474;2022-07-23T14:21:24;32.50;28.48
12907;DHT22;6521;50.498;8.474;2022-07-23T14:23:54;32.63;28.68
12907;DHT22;6521;50.498;8.474;2022-07-23T14:26:25;32.74;28.55
12907;DHT22;6521;50.498;8.474;2022-07-23T14:28:56;32.47;27.93
12907;DHT22;6521;50.498;8.474;2022-07-23T14:31:27;32.30;27.70
12907;DHT22;6521;50.498;8.474;2022-07-23T14:33:58;32.37;27.41
12907;DHT22;6521;50.498;8.474;2022-07-23T14:36:29;32.51;28.07
12907;DHT22;6521;50.498;8.474;2022-07-23T14:39:00;32.75;27.73
12907;DHT22;6521;50.498;8.474;2022-07-23T14:41:31;32.14;28.00
12907;DHT22;6521;50.498;8.474;2022-07-23T14:44:02;31.45;29.17
12907;DHT22;6521;50.498;8.474;2022-07-23T14:46:33;31.37;30.03
12907;DHT22;6521;50.498;8.474;2022-07-23T14:49:04;31.41;29.07
12907;DHT22;6521;50.498;8.474;2022-07-23T14:51:35;31.63;29.44
12907;DHT22;6521;50.498;8.474;2022-07-23T14:54:06;31.78;29.19
12907;DHT22;6521;50.498;8.474;2022-07-23T14:56:37;31.68;29.24
12907;DHT22;6521;50.498;8.474;2022-07-23T14:59:08;31.61;29.97
12907;DHT22;6521;50.498;8.474;2022-07-23T15:01:39;31.89;28.82
12907;DHT22;6521;50.498;8.474;2022-07-23T15:04:09;32.12;28.83
12907;DHT22;6521;50.498;8.474;2022-07-23T15:06:40;32.14;28.04
12907;DHT22;6521;50.498;8.474;2022-07-23T15:09:11;31.62;28.32
12907;DHT22;6521;50.498;8.474;2022-07-23T15:11:42;31.20;29.38
12907;DHT22;6521;50.498;8.474;2022-07-23T15:14:12;30.95;29.33
12907;DHT22;6521;50.498;8.474;2022-07-23T15:16:43;30.81;30.00
12907;DHT22;6521;50.498;8.474;2022-07-23T15:19:14;30.55;30.30
12907;DHT22;6521;50.498;8.474;2022-07-23T15:21:45;30.39;31.23
12907;DHT22;6521;50.498;8.474;2022-07-23T15:24:16;30.28;31.28
12907;DHT22;6521;50.498;8.474;2022-07-23T15:26:46;30.28;31.03
12907;DHT22;6521;50.498;8.474;2022-07-23T15:29:17;29.91;30.92
12907;DHT22;6521;50.498;8.474;2022-07-23T15:31:48;29.64;31.98
12907;DHT22;6521;50.498;8.474;2022-07-23T15:34:19;29.58;31.97
12907;DHT22;6521;50.498;8.474;2022-07-23T15:36:49;29.37;32.97
12907;DHT22;6521;50.498;8.474;2022-07-23T15:39:20;29.23;33.91
12907;DHT22;6521;50.498;8.474;2022-07-23T15:41:51;29.40;33.47
12907;DHT22;6521;50.498;8.474;2022-07-23T15:44:22;29.91;32.20
12907;DHT22;6521;50.498;8.474;2022-07-23T15:46:53;29.98;31.85
12907;DHT22;6521;50.498;8.474;2022-07-23T15:49:23;30.18;31.12
12907;DHT22;6521;50.498;8.474;2022-07-23T15:51:55;30.15;30.84
12907;DHT22;6521;50.498;8.474;2022-07-23T15:54:25;30.19;31.00
12907;DHT22;6521;50.498;8.474;2022-07-23T15:56:56;30.15;31.31
12907;DHT22;6521;50.498;8.474;2022-07-23T15:59:27;30.35;31.23
12907;DHT22;6521;50.498;8.474;2022-07-23T16:01:57;30.26;30.25
12907;DHT22;6521;50.498;8.474;2022-07-23T16:04:29;30.04;30.97
12907;DHT22;6521;50.498;8.474;2022-07-23T16:06:59;29.43;33.05
12907;DHT22;6521;50.498;8.474;2022-07-23T16:09:30;29.40;33.07
12907;DHT22;6521;50.498;8.474;2022-07-23T16:12:01;29.43;32.53
12907;DHT22;6521;50.498;8.474;2022-07-23T16:14:32;29.38;33.38
12907;DHT22;6521;50.498;8.474;2022-07-23T16:17:03;29.05;33.94
12907;DHT22;6521;50.498;8.474;2022-07-23T16:19:33;29.31;33.02
12907;DHT22;6521;50.498;8.474;2022-07-23T16:22:04;29.44;32.76
12907;DHT22;6521;50.498;8.474;2022-07-23T16:24:35;29.55;32.38
12907;DHT22;6521;50.498;8.474;2022-07-23T16:27:06;29.84;32.22
12907;DHT22;6521;50.498;8.474;2022-07-23T16:29:36;29.80;32.33
12907;DHT22;6521;50.498;8.474;2022-07-23T16:32:07;29.55;32.53
12907;DHT22;6521;50.498;8.474;2022-07-23T16:34:37;29.54;32.27
12907;DHT22;6521;50.498;8.474;2022-07-23T16:37:09;29.60;31.90
12907;DHT22;6521;50.498;8.474;2022-07-23T16:39:41;29.36;33.50
12907;DHT22;6521;50.498;8.474;2022-07-23T16:42:11;28.96;33.62
12907;DHT22;6521;50.498;8.474;2022-07-23T16:44:42;29.15;32.89
12907;DHT22;6521;50.498;8.474;2022-07-23T16:47:13;29.29;33.39
12907;DHT22;6521;50.498;8.474;2022-07-23T16:49:44;29.33;33.12
12907;DHT22;6521;50.498;8.474;2022-07-23T16:52:14;29.43;32.49
12907;DHT22;6521;50.498;8.474;2022-07-23T16:54:45;29.13;33.70
12907;DHT22;6521;50.498;8.474;2022-07-23T16:57:16;28.68;34.46
12907;DHT22;6521;50.498;8.474;2022-07-23T16:59:46;28.95;33.73
12907;DHT22;6521;50.498;8.474;2022-07-23T17:02:17;28.89;34.17